sensor_id;sensor_type;location;lat;lon;timestamp;pressure;altitude;pressure_sealevel;temperature;humidity
41040;BME280;48586;50.122;18.972;2024-01-06T00:01:20;97586.31;;;0.47;60.17
41040;BME280;48586;50.122;18.972;2024-01-06T00:04:26;97591.16;;;0.40;60.28
41040;BME280;48586;50.122;18.972;2024-01-06T00:07:33;97565.56;;;0.30;60.44
41040;BME280;48586;50.122;18.972;2024-01-06T00:10:39;97561.50;;;0.26;60.74
41040;BME280;48586;50.122;18.972;2024-01-06T00:13:46;97574.53;;;0.27;60.83
41040;BME280;48586;50.122;18.972;2024-01-06T00:16:54;97572.75;;;0.28;60.97
41040;BME280;48586;50.122;18.972;2024-01-06T00:20:00;97568.84;;;0.33;60.81
41040;BME280;48586;50.122;18.972;2024-01-06T00:23:07;97566.00;;;0.36;60.75
41040;BME280;48586;50.122;18.972;2024-01-06T00:26:13;97575.34;;;0.40;60.42
41040;BME280;48586;50.122;18.972;2024-01-06T00:29:19;97568.28;;;0.41;60.44
41040;BME280;48586;50.122;18.972;2024-01-06T00:32:28;97564.63;;;0.43;60.33
41040;BME280;48586;50.122;18.972;2024-01-06T00:35:34;97563.03;;;0.41;60.35
41040;BME280;48586;50.122;18.972;2024-01-06T00:38:40;97552.59;;;0.39;60.43
41040;BME280;48586;50.122;18.972;2024-01-06T00:41:46;97568.22;;;0.42;60.36
41040;BME280;48586;50.122;18.972;2024-01-06T00:44:53;97570.72;;;0.44;60.42
41040;BME280;48586;50.122;18.972;2024-01-06T00:48:01;97572.53;;;0.43;60.55
41040;BME280;48586;50.122;18.972;2024-01-06T00:51:08;97575.16;;;0.43;60.43
41040;BME280;48586;50.122;18.972;2024-01-06T00:54:14;97564.63;;;0.43;60.40
41040;BME280;48586;50.122;18.972;2024-01-06T00:57:21;97567.03;;;0.46;60.43
41040;BME280;48586;50.122;18.972;2024-01-06T01:00:26;97562.50;;;0.48;60.42
41040;BME280;48586;50.122;18.972;2024-01-06T01:03:35;97565.66;;;0.54;60.52
41040;BME280;48586;50.122;18.972;2024-01-06T01:06:41;97573.22;;;0.58;60.22
41040;BME280;48586;50.122;18.972;2024-01-06T01:09:46;97572.50;;;0.56;59.77
41040;BME280;48586;50.122;18.972;2024-01-06T01:12:51;97578.72;;;0.55;59.94
41040;BME280;48586;50.122;18.972;2024-01-06T01:15:56;97583.97;;;0.55;59.87
41040;BME280;48586;50.122;18.972;2024-01-06T01:19:03;97604.94;;;0.57;59.79
41040;BME280;48586;50.122;18.972;2024-01-06T01:22:08;97594.50;;;0.55;59.92
41040;BME280;48586;50.122;18.972;2024-01-06T01:25:13;97600.63;;;0.56;59.84
41040;BME280;48586;50.122;18.972;2024-01-06T01:28:18;97591.88;;;0.55;59.84
41040;BME280;48586;50.122;18.972;2024-01-06T01:31:23;97561.34;;;0.40;59.91
41040;BME280;48586;50.122;18.972;2024-01-06T01:34:31;97588.78;;;0.61;59.63
41040;BME280;48586;50.122;18.972;2024-01-06T01:37:35;97587.94;;;0.61;59.56
41040;BME280;48586;50.122;18.972;2024-01-06T01:40:41;97589.44;;;0.65;59.50
41040;BME280;48586;50.122;18.972;2024-01-06T01:43:46;97580.34;;;0.69;59.53
41040;BME280;48586;50.122;18.972;2024-01-06T01:46:51;97576.53;;;0.73;59.57
41040;BME280;48586;50.122;18.972;2024-01-06T01:50:00;97570.41;;;0.72;59.34
41040;BME280;48586;50.122;18.972;2024-01-06T01:53:06;97581.72;;;0.74;59.46
41040;BME280;48586;50.122;18.972;2024-01-06T01:56:12;97576.34;;;0.76;59.34
41040;BME280;48586;50.122;18.972;2024-01-06T01:59:18;97557.72;;;0.66;59.48
41040;BME280;48586;50.122;18.972;2024-01-06T02:02:23;97560.72;;;0.73;59.54
41040;BME280;48586;50.122;18.972;2024-01-06T02:05:33;97573.81;;;0.74;59.63
41040;BME280;48586;50.122;18.972;2024-01-06T02:08:37;97578.00;;;0.77;59.65
41040;BME280;48586;50.122;18.972;2024-01-06T02:11:43;97582.22;;;0.79;59.41
41040;BME280;48586;50.122;18.972;2024-01-06T02:14:47;97588.44;;;0.78;59.35
41040;BME280;48586;50.122;18.972;2024-01-06T02:17:53;97591.31;;;0.75;59.27
41040;BME280;48586;50.122;18.972;2024-01-06T02:21:01;97575.69;;;0.72;59.69
41040;BME280;48586;50.122;18.972;2024-01-06T02:24:10;97588.56;;;0.77;59.53
41040;BME280;48586;50.122;18.972;2024-01-06T02:27:15;97583.41;;;0.75;59.53
41040;BME280;48586;50.122;18.972;2024-01-06T02:30:20;97580.75;;;0.75;59.32
41040;BME280;48586;50.122;18.972;2024-01-06T02:33:25;97572.22;;;0.72;59.50
41040;BME280;48586;50.122;18.972;2024-01-06T02:36:30;97558.00;;;0.74;59.37
41040;BME280;48586;50.122;18.972;2024-01-06T02:39:37;97556.41;;;0.72;59.55
41040;BME280;48586;50.122;18.972;2024-01-06T02:42:42;97543.88;;;0.75;59.50
41040;BME280;48586;50.122;18.972;2024-01-06T02:45:47;97548.38;;;0.73;59.45
41040;BME280;48586;50.122;18.972;2024-01-06T02:48:52;97539.03;;;0.69;59.25
41040;BME280;48586;50.122;18.972;2024-01-06T02:51:57;97541.44;;;0.72;59.13
41040;BME280;48586;50.122;18.972;2024-01-06T02:55:05;97542.63;;;0.68;59.29
41040;BME280;48586;50.122;18.972;2024-01-06T02:58:10;97551.03;;;0.73;59.35
41040;BME280;48586;50.122;18.972;2024-01-06T03:01:16;97543.22;;;0.72;59.04
41040;BME280;48586;50.122;18.972;2024-01-06T03:04:21;97540.59;;;0.72;59.20
41040;BME280;48586;50.122;18.972;2024-01-06T03:07:27;97547.66;;;0.71;59.36
41040;BME280;48586;50.122;18.972;2024-01-06T03:10:34;97548.72;;;0.69;59.37
41040;BME280;48586;50.122;18.972;2024-01-06T03:13:40;97546.94;;;0.69;59.52
41040;BME280;48586;50.122;18.972;2024-01-06T03:16:44;97549.47;;;0.71;59.61
41040;BME280;48586;50.122;18.972;2024-01-06T03:19:49;97558.09;;;0.73;59.71
41040;BME280;48586;50.122;18.972;2024-01-06T03:22:54;97554.19;;;0.78;59.62
41040;BME280;48586;50.122;18.972;2024-01-06T03:26:05;97545.94;;;0.83;59.32
41040;BME280;48586;50.122;18.972;2024-01-06T03:29:10;97535.19;;;0.86;59.43
41040;BME280;48586;50.122;18.972;2024-01-06T03:32:15;97497.22;;;0.65;59.17
41040;BME280;48586;50.122;18.972;2024-01-06T03:35:20;97542.66;;;0.92;58.99
41040;BME280;48586;50.122;18.972;2024-01-06T03:38:28;97540.75;;;0.94;58.91
41040;BME280;48586;50.122;18.972;2024-01-06T03:41:35;97541.50;;;0.96;59.01
41040;BME280;48586;50.122;18.972;2024-01-06T03:44:40;97541.97;;;1.01;58.85
41040;BME280;48586;50.122;18.972;2024-01-06T03:47:44;97543.34;;;1.07;58.81
41040;BME280;48586;50.122;18.972;2024-01-06T03:50:50;97532.88;;;1.05;58.76
41040;BME280;48586;50.122;18.972;2024-01-06T03:53:54;97542.88;;;1.13;58.88
41040;BME280;48586;50.122;18.972;2024-01-06T03:57:02;97545.28;;;1.16;58.63
41040;BME280;48586;50.122;18.972;2024-01-06T04:00:08;97544.09;;;1.20;58.50
41040;BME280;48586;50.122;18.972;2024-01-06T04:03:14;97537.88;;;1.21;58.67
41040;BME280;48586;50.122;18.972;2024-01-06T04:06:18;97541.00;;;1.26;58.62
41040;BME280;48586;50.122;18.972;2024-01-06T04:09:24;97541.84;;;1.27;58.32
41040;BME280;48586;50.122;18.972;2024-01-06T04:12:31;97553.00;;;1.30;58.30
41040;BME280;48586;50.122;18.972;2024-01-06T04:15:36;97545.34;;;1.27;58.39
41040;BME280;48586;50.122;18.972;2024-01-06T04:18:43;97541.75;;;1.28;58.37
41040;BME280;48586;50.122;18.972;2024-01-06T04:21:48;97560.69;;;1.33;58.20
41040;BME280;48586;50.122;18.972;2024-01-06T04:24:53;97559.63;;;1.36;58.25
41040;BME280;48586;50.122;18.972;2024-01-06T04:28:00;97557.09;;;1.34;58.05
41040;BME280;48586;50.122;18.972;2024-01-06T04:31:05;97551.94;;;1.33;58.32
41040;BME280;48586;50.122;18.972;2024-01-06T04:34:10;97560.69;;;1.33;58.40
41040;BME280;48586;50.122;18.972;2024-01-06T04:37:15;97560.56;;;1.35;58.64
41040;BME280;48586;50.122;18.972;2024-01-06T04:40:20;97571.28;;;1.45;58.53
41040;BME280;48586;50.122;18.972;2024-01-06T04:43:28;97567.13;;;1.53;58.17
41040;BME280;48586;50.122;18.972;2024-01-06T04:46:33;97562.44;;;1.57;57.95
41040;BME280;48586;50.122;18.972;2024-01-06T04:49:37;97557.66;;;1.62;58.05
41040;BME280;48586;50.122;18.972;2024-01-06T04:52:43;97562.47;;;1.68;57.94
41040;BME280;48586;50.122;18.972;2024-01-06T04:55:47;97566.44;;;1.74;58.21
41040;BME280;48586;50.122;18.972;2024-01-06T04:58:55;97571.47;;;1.77;57.64
41040;BME280;48586;50.122;18.972;2024-01-06T05:02:01;97564.41;;;1.77;57.73
41040;BME280;48586;50.122;18.972;2024-01-06T05:05:06;97562.59;;;1.78;57.69
41040;BME280;48586;50.122;18.972;2024-01-06T05:08:11;97561.88;;;1.76;57.68
41040;BME280;48586;50.122;18.972;2024-01-06T05:11:17;97553.97;;;1.76;57.95
41040;BME280;48586;50.122;18.972;2024-01-06T05:14:24;97560.69;;;1.80;58.08
41040;BME280;48586;50.122;18.972;2024-01-06T05:17:29;97556.25;;;1.80;57.77
41040;BME280;48586;50.122;18.972;2024-01-06T05:20:33;97563.31;;;1.80;58.00
41040;BME280;48586;50.122;18.972;2024-01-06T05:23:39;97558.16;;;1.78;57.84
41040;BME280;48586;50.122;18.972;2024-01-06T05:26:43;97551.06;;;1.67;57.99
41040;BME280;48586;50.122;18.972;2024-01-06T05:29:51;97553.38;;;1.72;58.10
41040;BME280;48586;50.122;18.972;2024-01-06T05:32:56;97553.38;;;1.72;58.38
41040;BME280;48586;50.122;18.972;2024-01-06T05:36:01;97555.50;;;1.67;58.19
41040;BME280;48586;50.122;18.972;2024-01-06T05:39:06;97547.44;;;1.57;58.43
41040;BME280;48586;50.122;18.972;2024-01-06T05:42:13;97553.47;;;1.59;58.48
41040;BME280;48586;50.122;18.972;2024-01-06T05:45:20;97561.84;;;1.53;58.41
41040;BME280;48586;50.122;18.972;2024-01-06T05:48:26;97559.91;;;1.55;58.62
41040;BME280;48586;50.122;18.972;2024-01-06T05:51:30;97563.25;;;1.46;58.58
41040;BME280;48586;50.122;18.972;2024-01-06T05:54:35;97573.72;;;1.59;59.26
41040;BME280;48586;50.122;18.972;2024-01-06T05:57:40;97573.38;;;1.63;58.89
41040;BME280;48586;50.122;18.972;2024-01-06T06:00:48;97570.63;;;1.65;58.94
41040;BME280;48586;50.122;18.972;2024-01-06T06:03:52;97568.50;;;1.70;58.66
41040;BME280;48586;50.122;18.972;2024-01-06T06:06:58;97567.75;;;1.68;58.75
41040;BME280;48586;50.122;18.972;2024-01-06T06:10:04;97580.94;;;1.68;58.93
41040;BME280;48586;50.122;18.972;2024-01-06T06:13:11;97579.88;;;1.71;58.77
41040;BME280;48586;50.122;18.972;2024-01-06T06:16:18;97574.59;;;1.71;58.51
41040;BME280;48586;50.122;18.972;2024-01-06T06:19:23;97582.41;;;1.72;58.58
41040;BME280;48586;50.122;18.972;2024-01-06T06:22:28;97593.09;;;1.71;58.15
41040;BME280;48586;50.122;18.972;2024-01-06T06:25:36;97601.44;;;1.64;58.20
41040;BME280;48586;50.122;18.972;2024-01-06T06:28:41;97613.28;;;1.59;58.64
41040;BME280;48586;50.122;18.972;2024-01-06T06:31:49;97607.41;;;1.55;58.41
41040;BME280;48586;50.122;18.972;2024-01-06T06:34:54;97596.84;;;1.55;59.16
41040;BME280;48586;50.122;18.972;2024-01-06T06:37:59;97598.09;;;1.62;58.98
41040;BME280;48586;50.122;18.972;2024-01-06T06:41:03;97602.28;;;1.65;58.97
41040;BME280;48586;50.122;18.972;2024-01-06T06:44:09;97604.56;;;1.70;58.78
41040;BME280;48586;50.122;18.972;2024-01-06T06:47:17;97601.22;;;1.67;58.75
41040;BME280;48586;50.122;18.972;2024-01-06T06:50:22;97606.03;;;1.74;58.93
41040;BME280;48586;50.122;18.972;2024-01-06T06:53:26;97610.13;;;1.78;58.93
41040;BME280;48586;50.122;18.972;2024-01-06T06:56:32;97597.88;;;1.77;58.59
41040;BME280;48586;50.122;18.972;2024-01-06T06:59:36;97607.34;;;1.79;58.85
41040;BME280;48586;50.122;18.972;2024-01-06T07:02:45;97611.59;;;1.82;58.78
41040;BME280;48586;50.122;18.972;2024-01-06T07:05:50;97604.97;;;1.87;58.82
41040;BME280;48586;50.122;18.972;2024-01-06T07:08:55;97598.88;;;1.87;58.19
41040;BME280;48586;50.122;18.972;2024-01-06T07:11:59;97610.66;;;1.94;58.42
41040;BME280;48586;50.122;18.972;2024-01-06T07:15:06;97610.13;;;1.89;58.71
41040;BME280;48586;50.122;18.972;2024-01-06T07:18:15;97613.28;;;1.94;58.85
41040;BME280;48586;50.122;18.972;2024-01-06T07:21:21;97602.13;;;2.02;58.94
41040;BME280;48586;50.122;18.972;2024-01-06T07:24:25;97608.75;;;2.07;58.76
41040;BME280;48586;50.122;18.972;2024-01-06T07:27:31;97614.28;;;2.15;58.85
41040;BME280;48586;50.122;18.972;2024-01-06T07:30:35;97605.88;;;2.21;58.76
41040;BME280;48586;50.122;18.972;2024-01-06T07:33:43;97619.44;;;2.28;58.74
41040;BME280;48586;50.122;18.972;2024-01-06T07:36:47;97620.66;;;2.35;58.50
41040;BME280;48586;50.122;18.972;2024-01-06T07:39:53;97613.22;;;2.40;58.31
41040;BME280;48586;50.122;18.972;2024-01-06T07:42:57;97614.66;;;2.44;58.15
41040;BME280;48586;50.122;18.972;2024-01-06T07:46:03;97618.16;;;2.45;58.17
41040;BME280;48586;50.122;18.972;2024-01-06T07:49:11;97617.41;;;2.43;58.09
41040;BME280;48586;50.122;18.972;2024-01-06T07:52:17;97617.91;;;2.48;57.97
41040;BME280;48586;50.122;18.972;2024-01-06T07:55:22;97619.59;;;2.49;57.68
41040;BME280;48586;50.122;18.972;2024-01-06T07:58:30;97623.19;;;2.48;58.09
41040;BME280;48586;50.122;18.972;2024-01-06T08:01:35;97636.53;;;2.46;57.96
41040;BME280;48586;50.122;18.972;2024-01-06T08:04:43;97637.50;;;2.45;57.83
41040;BME280;48586;50.122;18.972;2024-01-06T08:07:47;97641.19;;;2.43;58.07
41040;BME280;48586;50.122;18.972;2024-01-06T08:10:52;97648.91;;;2.46;58.22
41040;BME280;48586;50.122;18.972;2024-01-06T08:13:57;97653.09;;;2.48;58.57
41040;BME280;48586;50.122;18.972;2024-01-06T08:17:03;97665.22;;;2.51;58.33
41040;BME280;48586;50.122;18.972;2024-01-06T08:20:11;97656.94;;;2.56;58.29
41040;BME280;48586;50.122;18.972;2024-01-06T08:23:17;97662.00;;;2.59;58.23
41040;BME280;48586;50.122;18.972;2024-01-06T08:26:23;97655.03;;;2.58;58.28
41040;BME280;48586;50.122;18.972;2024-01-06T08:29:30;97662.72;;;2.61;58.46
41040;BME280;48586;50.122;18.972;2024-01-06T08:32:37;97657.78;;;2.67;58.34
41040;BME280;48586;50.122;18.972;2024-01-06T08:35:45;97657.66;;;2.69;58.49
41040;BME280;48586;50.122;18.972;2024-01-06T08:38:52;97665.72;;;2.67;58.56
41040;BME280;48586;50.122;18.972;2024-01-06T08:41:59;97667.03;;;2.73;58.78
41040;BME280;48586;50.122;18.972;2024-01-06T08:45:05;97668.56;;;2.75;58.39
41040;BME280;48586;50.122;18.972;2024-01-06T08:48:11;97665.00;;;2.76;58.74
41040;BME280;48586;50.122;18.972;2024-01-06T08:51:19;97665.34;;;2.83;58.51
41040;BME280;48586;50.122;18.972;2024-01-06T08:54:27;97654.31;;;2.78;58.53
41040;BME280;48586;50.122;18.972;2024-01-06T08:57:32;97665.84;;;2.88;58.34
41040;BME280;48586;50.122;18.972;2024-01-06T09:00:40;97668.34;;;2.90;58.39
41040;BME280;48586;50.122;18.972;2024-01-06T09:03:45;97671.59;;;2.93;58.44
41040;BME280;48586;50.122;18.972;2024-01-06T09:06:55;97662.56;;;2.96;58.34
41040;BME280;48586;50.122;18.972;2024-01-06T09:10:01;97664.84;;;3.00;58.35
41040;BME280;48586;50.122;18.972;2024-01-06T09:13:08;97669.91;;;3.03;58.36
41040;BME280;48586;50.122;18.972;2024-01-06T09:16:14;97669.75;;;3.05;58.15
41040;BME280;48586;50.122;18.972;2024-01-06T09:19:21;97665.44;;;3.04;58.19
41040;BME280;48586;50.122;18.972;2024-01-06T09:22:30;97661.69;;;3.06;58.22
41040;BME280;48586;50.122;18.972;2024-01-06T09:25:36;97667.34;;;3.13;58.41
41040;BME280;48586;50.122;18.972;2024-01-06T09:28:42;97675.75;;;3.18;58.09
41040;BME280;48586;50.122;18.972;2024-01-06T09:31:48;97675.28;;;3.24;58.35
41040;BME280;48586;50.122;18.972;2024-01-06T09:34:53;97676.81;;;3.27;58.28
41040;BME280;48586;50.122;18.972;2024-01-06T09:38:02;97670.44;;;3.29;58.23
41040;BME280;48586;50.122;18.972;2024-01-06T09:41:09;97676.34;;;3.33;58.38
41040;BME280;48586;50.122;18.972;2024-01-06T09:44:16;97669.00;;;3.36;58.12
41040;BME280;48586;50.122;18.972;2024-01-06T09:47:23;97655.16;;;3.33;57.87
41040;BME280;48586;50.122;18.972;2024-01-06T09:50:34;97672.38;;;3.38;58.11
41040;BME280;48586;50.122;18.972;2024-01-06T09:53:48;97663.47;;;3.28;57.85
41040;BME280;48586;50.122;18.972;2024-01-06T09:57:00;97666.84;;;3.30;58.19
41040;BME280;48586;50.122;18.972;2024-01-06T10:00:09;97673.69;;;3.33;58.48
41040;BME280;48586;50.122;18.972;2024-01-06T10:03:17;97680.56;;;3.35;58.59
41040;BME280;48586;50.122;18.972;2024-01-06T10:06:22;97672.63;;;3.35;58.45
41040;BME280;48586;50.122;18.972;2024-01-06T10:09:32;97675.97;;;3.37;58.62
41040;BME280;48586;50.122;18.972;2024-01-06T10:12:38;97678.75;;;3.36;58.63
41040;BME280;48586;50.122;18.972;2024-01-06T10:15:45;97671.53;;;3.38;58.98
41040;BME280;48586;50.122;18.972;2024-01-06T10:18:53;97664.34;;;3.40;59.14
41040;BME280;48586;50.122;18.972;2024-01-06T10:21:59;97664.66;;;3.47;59.00
41040;BME280;48586;50.122;18.972;2024-01-06T10:25:09;97666.94;;;3.51;58.41
41040;BME280;48586;50.122;18.972;2024-01-06T10:28:17;97660.81;;;3.51;58.80
41040;BME280;48586;50.122;18.972;2024-01-06T10:31:25;97670.03;;;3.56;59.17
41040;BME280;48586;50.122;18.972;2024-01-06T10:34:32;97663.41;;;3.62;59.76
41040;BME280;48586;50.122;18.972;2024-01-06T10:37:42;97665.75;;;3.76;59.39
41040;BME280;48586;50.122;18.972;2024-01-06T10:41:03;97668.00;;;3.81;58.95
41040;BME280;48586;50.122;18.972;2024-01-06T10:44:11;97649.03;;;3.76;58.55
41040;BME280;48586;50.122;18.972;2024-01-06T10:47:19;97667.00;;;3.93;58.36
41040;BME280;48586;50.122;18.972;2024-01-06T10:50:27;97672.75;;;3.98;58.61
41040;BME280;48586;50.122;18.972;2024-01-06T10:53:37;97648.97;;;3.87;58.26
41040;BME280;48586;50.122;18.972;2024-01-06T10:56:49;97658.28;;;4.02;58.93
41040;BME280;48586;50.122;18.972;2024-01-06T11:00:01;97659.59;;;4.08;58.87
41040;BME280;48586;50.122;18.972;2024-01-06T11:03:09;97656.94;;;4.08;58.77
41040;BME280;48586;50.122;18.972;2024-01-06T11:06:18;97643.13;;;4.04;58.89
41040;BME280;48586;50.122;18.972;2024-01-06T11:09:29;97659.38;;;4.20;59.03
41040;BME280;48586;50.122;18.972;2024-01-06T11:12:44;97651.91;;;4.25;58.57
41040;BME280;48586;50.122;18.972;2024-01-06T11:15:51;97656.66;;;4.32;58.71
41040;BME280;48586;50.122;18.972;2024-01-06T11:18:58;97656.28;;;4.36;58.79
41040;BME280;48586;50.122;18.972;2024-01-06T11:22:19;97630.16;;;4.32;59.27
41040;BME280;48586;50.122;18.972;2024-01-06T11:25:26;97653.72;;;4.55;58.85
41040;BME280;48586;50.122;18.972;2024-01-06T11:28:44;97644.84;;;4.66;58.76
41040;BME280;48586;50.122;18.972;2024-01-06T11:32:18;97648.06;;;4.70;58.24
41040;BME280;48586;50.122;18.972;2024-01-06T11:35:27;97645.16;;;4.73;58.80
41040;BME280;48586;50.122;18.972;2024-01-06T11:38:35;97643.34;;;4.73;58.39
41040;BME280;48586;50.122;18.972;2024-01-06T11:41:48;97649.28;;;4.66;58.12
41040;BME280;48586;50.122;18.972;2024-01-06T11:45:02;97651.06;;;4.55;58.49
41040;BME280;48586;50.122;18.972;2024-01-06T11:48:11;97636.41;;;4.51;59.02
41040;BME280;48586;50.122;18.972;2024-01-06T11:51:18;97634.72;;;4.50;58.81
41040;BME280;48586;50.122;18.972;2024-01-06T11:54:24;97646.44;;;4.48;58.71
41040;BME280;48586;50.122;18.972;2024-01-06T11:57:31;97633.63;;;4.53;59.20
41040;BME280;48586;50.122;18.972;2024-01-06T12:00:39;97635.03;;;4.57;59.23
41040;BME280;48586;50.122;18.972;2024-01-06T12:03:53;97630.03;;;4.64;59.52
41040;BME280;48586;50.122;18.972;2024-01-06T12:07:06;97630.91;;;4.74;59.17
41040;BME280;48586;50.122;18.972;2024-01-06T12:10:20;97630.53;;;4.78;58.34
41040;BME280;48586;50.122;18.972;2024-01-06T12:13:26;97635.09;;;4.76;58.08
41040;BME280;48586;50.122;18.972;2024-01-06T12:16:35;97641.97;;;4.79;58.60
41040;BME280;48586;50.122;18.972;2024-01-06T12:19:41;97635.25;;;4.75;58.34
41040;BME280;48586;50.122;18.972;2024-01-06T12:22:48;97625.72;;;4.63;58.10
41040;BME280;48586;50.122;18.972;2024-01-06T12:25:52;97646.25;;;4.70;58.63
41040;BME280;48586;50.122;18.972;2024-01-06T12:28:58;97640.25;;;4.68;58.58
41040;BME280;48586;50.122;18.972;2024-01-06T12:32:06;97648.31;;;4.67;58.59
41040;BME280;48586;50.122;18.972;2024-01-06T12:35:12;97643.03;;;4.67;58.56
41040;BME280;48586;50.122;18.972;2024-01-06T12:38:19;97652.09;;;4.64;58.81
41040;BME280;48586;50.122;18.972;2024-01-06T12:41:28;97651.81;;;4.67;58.71
41040;BME280;48586;50.122;18.972;2024-01-06T12:44:34;97656.28;;;4.67;59.28
41040;BME280;48586;50.122;18.972;2024-01-06T12:47:44;97657.84;;;4.69;59.14
41040;BME280;48586;50.122;18.972;2024-01-06T12:50:48;97648.22;;;4.68;58.99
41040;BME280;48586;50.122;18.972;2024-01-06T12:53:56;97638.53;;;4.57;58.77
41040;BME280;48586;50.122;18.972;2024-01-06T12:57:01;97648.03;;;4.60;59.29
41040;BME280;48586;50.122;18.972;2024-01-06T13:00:07;97647.47;;;4.66;59.33
41040;BME280;48586;50.122;18.972;2024-01-06T13:03:15;97649.75;;;4.71;59.20
41040;BME280;48586;50.122;18.972;2024-01-06T13:06:21;97650.31;;;4.74;59.37
41040;BME280;48586;50.122;18.972;2024-01-06T13:09:27;97651.00;;;4.76;59.39
41040;BME280;48586;50.122;18.972;2024-01-06T13:12:33;97653.53;;;4.68;58.77
41040;BME280;48586;50.122;18.972;2024-01-06T13:15:38;97657.94;;;4.58;59.21
41040;BME280;48586;50.122;18.972;2024-01-06T13:18:46;97662.91;;;4.51;58.81
41040;BME280;48586;50.122;18.972;2024-01-06T13:21:53;97662.28;;;4.38;59.11
41040;BME280;48586;50.122;18.972;2024-01-06T13:24:58;97666.88;;;4.36;59.33
41040;BME280;48586;50.122;18.972;2024-01-06T13:28:03;97664.41;;;4.23;59.65
41040;BME280;48586;50.122;18.972;2024-01-06T13:31:09;97670.63;;;4.13;59.79
41040;BME280;48586;50.122;18.972;2024-01-06T13:34:17;97668.81;;;4.13;60.03
41040;BME280;48586;50.122;18.972;2024-01-06T13:37:23;97671.59;;;4.12;59.49
41040;BME280;48586;50.122;18.972;2024-01-06T13:40:27;97660.84;;;3.92;59.83
41040;BME280;48586;50.122;18.972;2024-01-06T13:43:33;97661.25;;;3.88;59.82
41040;BME280;48586;50.122;18.972;2024-01-06T13:46:38;97675.47;;;3.87;59.68
41040;BME280;48586;50.122;18.972;2024-01-06T13:49:49;97671.91;;;3.77;60.05
41040;BME280;48586;50.122;18.972;2024-01-06T13:52:56;97681.91;;;3.73;60.32
41040;BME280;48586;50.122;18.972;2024-01-06T13:56:02;97671.84;;;3.56;60.02
41040;BME280;48586;50.122;18.972;2024-01-06T13:59:09;97667.69;;;3.42;60.52
41040;BME280;48586;50.122;18.972;2024-01-06T14:02:17;97700.03;;;3.46;60.45
41040;BME280;48586;50.122;18.972;2024-01-06T14:05:25;97704.97;;;3.39;60.92
41040;BME280;48586;50.122;18.972;2024-01-06T14:08:30;97700.06;;;3.34;60.75
41040;BME280;48586;50.122;18.972;2024-01-06T14:11:35;97706.75;;;3.27;60.58
41040;BME280;48586;50.122;18.972;2024-01-06T14:14:40;97704.97;;;3.17;61.00
41040;BME280;48586;50.122;18.972;2024-01-06T14:17:45;97706.44;;;3.09;61.30
41040;BME280;48586;50.122;18.972;2024-01-06T14:20:54;97703.44;;;3.03;61.13
41040;BME280;48586;50.122;18.972;2024-01-06T14:23:59;97720.97;;;3.04;60.78
41040;BME280;48586;50.122;18.972;2024-01-06T14:27:05;97719.31;;;3.03;60.90
41040;BME280;48586;50.122;18.972;2024-01-06T14:30:10;97728.91;;;3.04;61.22
41040;BME280;48586;50.122;18.972;2024-01-06T14:33:16;97731.69;;;3.02;61.10
41040;BME280;48586;50.122;18.972;2024-01-06T14:36:24;97733.13;;;3.06;61.29
41040;BME280;48586;50.122;18.972;2024-01-06T14:39:29;97727.81;;;3.06;60.64
41040;BME280;48586;50.122;18.972;2024-01-06T14:42:33;97724.34;;;3.06;61.05
41040;BME280;48586;50.122;18.972;2024-01-06T14:45:39;97722.91;;;3.02;60.43
41040;BME280;48586;50.122;18.972;2024-01-06T14:48:44;97737.34;;;2.98;60.86
41040;BME280;48586;50.122;18.972;2024-01-06T14:51:52;97742.03;;;2.94;60.64
41040;BME280;48586;50.122;18.972;2024-01-06T14:54:56;97746.13;;;2.87;60.88
41040;BME280;48586;50.122;18.972;2024-01-06T14:58:04;97734.22;;;2.81;61.32
41040;BME280;48586;50.122;18.972;2024-01-06T15:01:09;97753.81;;;2.90;61.26
41040;BME280;48586;50.122;18.972;2024-01-06T15:04:15;97752.72;;;2.93;61.21
41040;BME280;48586;50.122;18.972;2024-01-06T15:07:26;97759.69;;;2.94;60.95
41040;BME280;48586;50.122;18.972;2024-01-06T15:10:34;97746.13;;;2.87;60.72
41040;BME280;48586;50.122;18.972;2024-01-06T15:13:51;97753.31;;;2.85;60.86
41040;BME280;48586;50.122;18.972;2024-01-06T15:17:11;97754.28;;;2.84;61.17
41040;BME280;48586;50.122;18.972;2024-01-06T15:20:18;97764.97;;;2.82;60.79
41040;BME280;48586;50.122;18.972;2024-01-06T15:23:28;97758.47;;;2.75;60.81
41040;BME280;48586;50.122;18.972;2024-01-06T15:26:34;97768.81;;;2.67;61.24
41040;BME280;48586;50.122;18.972;2024-01-06T15:29:40;97767.34;;;2.63;61.37
41040;BME280;48586;50.122;18.972;2024-01-06T15:32:45;97753.38;;;2.50;61.65
41040;BME280;48586;50.122;18.972;2024-01-06T15:35:52;97771.41;;;2.45;61.61
41040;BME280;48586;50.122;18.972;2024-01-06T15:39:00;97775.22;;;2.41;61.73
41040;BME280;48586;50.122;18.972;2024-01-06T15:42:09;97778.34;;;2.35;62.36
41040;BME280;48586;50.122;18.972;2024-01-06T15:45:15;97781.94;;;2.34;62.52
41040;BME280;48586;50.122;18.972;2024-01-06T15:48:22;97786.59;;;2.30;62.60
41040;BME280;48586;50.122;18.972;2024-01-06T15:51:28;97784.19;;;2.27;63.03
41040;BME280;48586;50.122;18.972;2024-01-06T15:54:36;97779.22;;;2.22;62.73
41040;BME280;48586;50.122;18.972;2024-01-06T15:57:42;97781.50;;;2.16;63.05
41040;BME280;48586;50.122;18.972;2024-01-06T16:00:50;97778.22;;;2.12;63.14
41040;BME280;48586;50.122;18.972;2024-01-06T16:03:56;97782.91;;;2.09;63.81
41040;BME280;48586;50.122;18.972;2024-01-06T16:07:02;97780.38;;;2.07;63.55
41040;BME280;48586;50.122;18.972;2024-01-06T16:10:10;97789.38;;;2.05;63.08
41040;BME280;48586;50.122;18.972;2024-01-06T16:13:16;97788.88;;;2.00;63.52
41040;BME280;48586;50.122;18.972;2024-01-06T16:16:21;97783.81;;;1.96;63.48
41040;BME280;48586;50.122;18.972;2024-01-06T16:19:27;97781.06;;;1.98;63.43
41040;BME280;48586;50.122;18.972;2024-01-06T16:22:34;97791.84;;;1.95;63.52
41040;BME280;48586;50.122;18.972;2024-01-06T16:25:43;97786.56;;;1.95;63.29
41040;BME280;48586;50.122;18.972;2024-01-06T16:28:49;97787.00;;;1.89;63.12